createdAt,value
2023-12-24T00:01:15.478Z,67.50
2023-12-24T00:03:43.280Z,67.50
2023-12-24T00:06:10.391Z,67.50
2023-12-24T00:08:37.745Z,67.60
2023-12-24T00:11:06.550Z,68.10
2023-12-24T00:13:33.488Z,67.50
2023-12-24T00:16:00.469Z,67.50
2023-12-24T00:18:27.430Z,67.50
2023-12-24T00:20:54.339Z,67.50
2023-12-24T00:23:21.348Z,67.50
2023-12-24T00:25:48.218Z,67.50
2023-12-24T00:28:15.066Z,67.50
2023-12-24T00:30:41.913Z,67.50
2023-12-24T00:33:08.769Z,67.50
2023-12-24T00:35:36.852Z,67.50
2023-12-24T00:38:04.067Z,67.50
2023-12-24T00:40:33.174Z,67.50
2023-12-24T00:42:59.924Z,67.50
2023-12-24T00:45:26.701Z,67.50
2023-12-24T00:47:53.590Z,67.50
2023-12-24T00:50:20.478Z,67.50
2023-12-24T00:52:47.853Z,67.60
2023-12-24T00:55:14.756Z,67.50
2023-12-24T00:57:41.643Z,68.10
2023-12-24T01:00:09.283Z,67.50
2023-12-24T01:02:36.389Z,67.50
2023-12-24T01:05:03.681Z,67.60
2023-12-24T01:07:30.476Z,67.50
2023-12-24T01:09:57.238Z,67.50
2023-12-24T01:12:24.061Z,67.60
2023-12-24T01:14:50.862Z,67.60
2023-12-24T01:17:17.641Z,67.60
2023-12-24T01:19:45.263Z,67.60
2023-12-24T01:22:12.502Z,67.60
2023-12-24T01:24:40.143Z,67.60
2023-12-24T01:27:07.194Z,67.60
2023-12-24T01:29:34.046Z,67.60
2023-12-24T01:32:01.385Z,67.50
2023-12-24T01:34:28.284Z,67.60
2023-12-24T01:36:56.235Z,67.60
2023-12-24T01:39:23.047Z,67.60
2023-12-24T01:41:49.834Z,67.60
2023-12-24T01:44:16.619Z,67.60
2023-12-24T01:46:44.525Z,68.20
2023-12-24T01:49:14.493Z,67.60
2023-12-24T01:51:41.261Z,67.50
2023-12-24T01:56:39.826Z,67.60
2023-12-24T01:59:09.202Z,67.60
2023-12-24T02:01:36.589Z,67.60
2023-12-24T02:04:04.298Z,67.60
2023-12-24T02:06:32.880Z,67.50
2023-12-24T02:08:59.704Z,67.60
2023-12-24T02:11:26.555Z,67.50
2023-12-24T02:13:53.706Z,67.60
2023-12-24T02:16:22.552Z,67.60
2023-12-24T02:18:49.574Z,67.60
2023-12-24T02:21:16.550Z,67.60
2023-12-24T02:23:43.320Z,67.60
2023-12-24T02:26:38.085Z,67.60
2023-12-24T02:29:15.763Z,67.50
2023-12-24T02:31:46.405Z,67.60
2023-12-24T02:34:18.039Z,67.60
2023-12-24T02:36:47.231Z,67.60
2023-12-24T02:39:13.996Z,67.60
2023-12-24T02:41:40.832Z,67.60
2023-12-24T02:44:07.808Z,67.60
2023-12-24T02:46:34.590Z,67.50
2023-12-24T02:49:01.472Z,67.50
2023-12-24T02:51:29.892Z,67.60
2023-12-24T02:53:56.633Z,67.60
2023-12-24T02:56:23.380Z,67.60
2023-12-24T02:58:50.117Z,67.60
2023-12-24T03:01:16.919Z,67.60
2023-12-24T03:03:43.787Z,67.50
2023-12-24T03:06:10.715Z,67.50
2023-12-24T03:08:37.638Z,67.50
2023-12-24T03:11:04.562Z,67.60
2023-12-24T03:13:31.331Z,67.60
2023-12-24T03:15:58.072Z,67.50
2023-12-24T03:18:24.855Z,67.50
2023-12-24T03:20:52.750Z,67.50
2023-12-24T03:23:19.606Z,67.50
2023-12-24T03:25:46.384Z,67.50
2023-12-24T03:28:13.113Z,67.50
2023-12-24T03:30:40.060Z,67.60
2023-12-24T03:33:06.810Z,67.50
2023-12-24T03:35:33.661Z,67.50
2023-12-24T03:38:00.446Z,67.50
2023-12-24T03:40:27.230Z,67.50
2023-12-24T03:42:54.749Z,67.50
2023-12-24T03:45:21.658Z,67.50
2023-12-24T03:47:48.708Z,67.60
2023-12-24T03:50:15.784Z,67.50
2023-12-24T03:52:42.534Z,67.60
2023-12-24T03:55:09.382Z,67.50
2023-12-24T03:57:36.359Z,67.50
2023-12-24T04:00:03.256Z,67.50
2023-12-24T04:02:31.993Z,67.50
2023-12-24T04:04:58.741Z,67.50
2023-12-24T04:07:25.457Z,67.60
2023-12-24T04:09:52.178Z,67.50
2023-12-24T04:12:18.946Z,67.50
2023-12-24T04:14:45.730Z,67.60
2023-12-24T04:17:12.638Z,67.50
2023-12-24T04:19:39.626Z,67.50
2023-12-24T04:22:06.510Z,67.50
2023-12-24T04:24:33.368Z,67.50
2023-12-24T04:27:01.596Z,67.50
2023-12-24T04:29:28.685Z,67.50
2023-12-24T04:31:56.495Z,67.50
2023-12-24T04:34:23.396Z,67.50
2023-12-24T04:36:50.389Z,67.50
2023-12-24T04:39:17.749Z,67.50
2023-12-24T04:41:44.664Z,67.50
2023-12-24T04:44:11.480Z,67.50
2023-12-24T04:46:44.422Z,67.50
2023-12-24T04:49:11.185Z,67.50
2023-12-24T04:51:37.960Z,67.50
2023-12-24T04:54:04.847Z,67.50
2023-12-24T04:56:33.231Z,67.50
2023-12-24T04:59:00.979Z,67.50
2023-12-24T05:01:29.079Z,67.40
2023-12-24T05:03:56.185Z,67.40
2023-12-24T05:06:23.113Z,67.50
2023-12-24T05:08:49.935Z,67.40
2023-12-24T05:11:16.732Z,67.40
2023-12-24T05:13:43.562Z,67.40
2023-12-24T05:16:10.334Z,67.50
2023-12-24T05:18:37.233Z,67.40
2023-12-24T05:21:04.378Z,67.40
2023-12-24T05:23:31.223Z,67.40
2023-12-24T05:25:59.028Z,67.40
2023-12-24T05:28:25.815Z,67.40
2023-12-24T05:30:52.646Z,67.40
2023-12-24T05:33:19.447Z,67.40
2023-12-24T05:35:46.290Z,67.40
2023-12-24T05:38:13.123Z,67.40
2023-12-24T05:40:39.805Z,67.40
2023-12-24T05:43:07.089Z,67.30
2023-12-24T05:45:34.912Z,67.40
2023-12-24T05:48:02.090Z,67.30
2023-12-24T05:50:29.148Z,67.40
2023-12-24T05:52:56.117Z,67.40
2023-12-24T05:55:23.246Z,67.30
2023-12-24T05:57:49.944Z,67.40
2023-12-24T06:00:17.180Z,67.40
2023-12-24T06:02:45.660Z,67.40
2023-12-24T06:05:12.569Z,67.40
2023-12-24T06:07:39.466Z,67.30
2023-12-24T06:10:06.860Z,67.30
2023-12-24T06:12:33.696Z,67.40
2023-12-24T06:15:00.451Z,67.40
2023-12-24T06:17:27.331Z,67.40
2023-12-24T06:19:54.292Z,67.40
2023-12-24T06:22:21.067Z,67.40
2023-12-24T06:24:47.852Z,67.40
2023-12-24T06:27:14.610Z,67.40
2023-12-24T06:29:41.435Z,67.30
2023-12-24T06:32:08.280Z,67.40
2023-12-24T06:34:35.042Z,67.40
2023-12-24T06:37:01.981Z,67.40
2023-12-24T06:39:28.772Z,67.30
2023-12-24T06:41:55.891Z,67.30
2023-12-24T06:44:23.585Z,67.30
2023-12-24T06:46:50.351Z,67.40
2023-12-24T06:49:17.275Z,67.40
2023-12-24T06:51:44.041Z,67.40
2023-12-24T06:54:10.952Z,67.40
2023-12-24T06:56:37.678Z,67.40
2023-12-24T06:59:04.644Z,67.40
2023-12-24T07:01:32.434Z,67.40
2023-12-24T07:03:59.178Z,67.40
2023-12-24T07:06:25.988Z,67.40
2023-12-24T07:08:52.800Z,67.40
2023-12-24T07:11:20.158Z,67.40
2023-12-24T07:13:47.700Z,67.40
2023-12-24T07:16:14.643Z,67.40
2023-12-24T07:18:41.646Z,67.40
2023-12-24T07:21:08.493Z,67.50
2023-12-24T07:23:35.280Z,67.40
2023-12-24T07:26:02.062Z,67.30
2023-12-24T07:28:29.782Z,68.00
2023-12-24T07:30:56.647Z,67.40
2023-12-24T07:33:23.575Z,68.00
2023-12-24T07:35:50.386Z,67.40
2023-12-24T07:38:17.223Z,67.40
2023-12-24T07:40:44.448Z,67.40
2023-12-24T07:43:11.219Z,67.40
2023-12-24T07:45:37.917Z,67.30
2023-12-24T07:48:05.198Z,67.40
2023-12-24T07:50:31.986Z,67.40
2023-12-24T07:52:58.699Z,67.40
2023-12-24T07:55:25.448Z,67.40
2023-12-24T07:57:52.166Z,67.40
2023-12-24T08:00:19.341Z,67.30
2023-12-24T08:02:46.245Z,67.30
2023-12-24T08:05:13.259Z,67.30
2023-12-24T08:07:40.358Z,67.30
2023-12-24T08:10:08.915Z,67.40
2023-12-24T08:12:36.009Z,67.40
2023-12-24T08:15:03.211Z,67.40
2023-12-24T08:17:30.029Z,67.50
2023-12-24T08:19:57.820Z,67.40
2023-12-24T08:22:24.806Z,67.30
2023-12-24T08:24:51.554Z,67.40
2023-12-24T08:27:18.252Z,67.40
2023-12-24T08:29:45.161Z,67.30
2023-12-24T08:32:12.152Z,67.40
2023-12-24T08:34:38.944Z,67.40
2023-12-24T08:37:05.750Z,67.40
2023-12-24T08:39:32.499Z,67.40
2023-12-24T08:42:01.251Z,67.40
2023-12-24T08:44:28.408Z,67.30
2023-12-24T08:46:55.280Z,67.30
2023-12-24T08:49:22.375Z,67.40
2023-12-24T08:51:49.089Z,67.40
2023-12-24T08:54:15.838Z,67.40
2023-12-24T08:56:42.816Z,67.40
2023-12-24T08:59:09.881Z,67.40
2023-12-24T09:01:41.511Z,67.40
2023-12-24T09:04:08.354Z,67.40
2023-12-24T09:06:37.218Z,67.40
2023-12-24T09:09:04.675Z,67.40
2023-12-24T09:11:31.443Z,67.40
2023-12-24T09:13:58.215Z,67.40
2023-12-24T09:16:24.911Z,67.40
2023-12-24T09:18:51.686Z,67.30
2023-12-24T09:21:18.573Z,67.40
2023-12-24T09:23:45.625Z,67.30
2023-12-24T09:26:12.409Z,67.40
2023-12-24T09:28:39.191Z,67.40
2023-12-24T09:31:05.942Z,67.40
2023-12-24T09:33:33.660Z,67.40
2023-12-24T09:36:00.497Z,67.40
2023-12-24T09:38:27.264Z,67.30
2023-12-24T09:40:54.029Z,67.40
2023-12-24T09:43:20.901Z,67.40
2023-12-24T09:45:47.657Z,67.40
2023-12-24T09:48:14.610Z,67.40
2023-12-24T09:50:44.743Z,67.40
2023-12-24T09:53:13.372Z,67.40
2023-12-24T09:55:40.556Z,67.40
2023-12-24T09:58:07.534Z,67.40
2023-12-24T10:00:34.257Z,67.30
2023-12-24T10:03:01.131Z,67.40
2023-12-24T10:05:28.036Z,67.40
2023-12-24T10:07:54.826Z,67.40
2023-12-24T10:10:32.127Z,67.40
2023-12-24T10:13:08.702Z,67.40
2023-12-24T10:15:39.934Z,67.40
2023-12-24T10:18:33.584Z,67.40
2023-12-24T10:21:09.867Z,67.40
2023-12-24T10:23:37.570Z,67.40
2023-12-24T10:26:06.413Z,67.40
2023-12-24T10:28:33.855Z,67.40
2023-12-24T10:31:10.802Z,67.40
2023-12-24T10:33:41.381Z,67.40
2023-12-24T10:36:08.740Z,67.40
2023-12-24T10:38:36.593Z,67.40
2023-12-24T10:41:04.634Z,67.40
2023-12-24T10:43:31.440Z,67.40
2023-12-24T10:45:58.192Z,67.40
2023-12-24T10:48:25.113Z,67.50
2023-12-24T10:50:52.095Z,67.50
2023-12-24T10:53:18.938Z,67.40
2023-12-24T10:55:55.247Z,67.40
2023-12-24T10:58:29.081Z,67.40
2023-12-24T11:01:07.659Z,67.40
2023-12-24T11:03:51.629Z,67.40
2023-12-24T11:06:37.102Z,67.40
2023-12-24T11:09:16.273Z,67.40
2023-12-24T11:11:53.438Z,67.40
2023-12-24T11:14:46.606Z,67.50
2023-12-24T11:17:35.469Z,67.40
2023-12-24T11:20:27.333Z,67.50
2023-12-24T11:23:06.618Z,67.50
2023-12-24T11:25:44.789Z,67.40
2023-12-24T11:28:14.025Z,67.50
2023-12-24T11:30:53.354Z,67.40
2023-12-24T11:33:35.644Z,67.50
2023-12-24T11:36:12.949Z,67.40
2023-12-24T11:38:40.910Z,67.40
2023-12-24T11:41:15.213Z,67.50
2023-12-24T11:43:51.096Z,67.50
2023-12-24T11:46:17.786Z,67.50
2023-12-24T11:48:44.697Z,67.50
2023-12-24T11:51:12.331Z,68.10
2023-12-24T11:53:43.405Z,67.50
2023-12-24T11:56:19.853Z,67.50
2023-12-24T11:58:49.613Z,67.50
2023-12-24T12:01:25.229Z,67.50
2023-12-24T12:04:05.737Z,67.40
2023-12-24T12:06:35.991Z,67.50
2023-12-24T12:09:07.761Z,67.50
2023-12-24T12:11:34.850Z,67.50
2023-12-24T12:14:02.730Z,67.50
2023-12-24T12:16:30.071Z,67.50
2023-12-24T12:18:58.367Z,67.50
2023-12-24T12:21:25.107Z,67.50
2023-12-24T12:23:51.988Z,67.50
2023-12-24T12:26:18.840Z,67.50
2023-12-24T12:28:45.643Z,67.50
2023-12-24T12:31:12.739Z,67.50
2023-12-24T12:33:39.571Z,67.50
2023-12-24T12:36:08.776Z,67.50
2023-12-24T12:38:36.122Z,67.50
2023-12-24T12:41:05.549Z,67.50
2023-12-24T12:43:32.942Z,67.50
2023-12-24T12:45:59.656Z,67.50
2023-12-24T12:48:26.850Z,67.50
2023-12-24T12:50:54.122Z,67.50
2023-12-24T12:53:27.185Z,67.50
2023-12-24T12:56:08.849Z,67.50
2023-12-24T12:58:36.433Z,67.50
2023-12-24T13:01:03.281Z,67.50
2023-12-24T13:03:30.224Z,67.50
2023-12-24T13:05:58.831Z,67.50
2023-12-24T13:08:26.372Z,67.50
2023-12-24T13:10:53.307Z,67.80
2023-12-24T13:13:24.774Z,67.50
2023-12-24T13:16:22.158Z,67.50
2023-12-24T13:18:49.079Z,67.50
2023-12-24T13:21:15.959Z,67.50
2023-12-24T13:23:44.769Z,67.50
2023-12-24T13:26:11.550Z,67.50
2023-12-24T13:28:40.675Z,67.50
2023-12-24T13:31:08.436Z,67.50
2023-12-24T13:33:35.576Z,67.50
2023-12-24T13:36:02.640Z,67.50
2023-12-24T13:38:29.721Z,67.70
2023-12-24T13:40:57.111Z,67.50
2023-12-24T13:43:23.915Z,67.50
2023-12-24T13:45:50.619Z,67.50
2023-12-24T13:48:17.564Z,67.50
2023-12-24T13:50:44.573Z,67.50
2023-12-24T13:53:19.715Z,67.50
2023-12-24T13:55:58.223Z,67.50
2023-12-24T13:58:25.346Z,67.50
2023-12-24T14:00:52.437Z,67.50
2023-12-24T14:03:25.125Z,67.50
2023-12-24T14:05:52.497Z,67.50
2023-12-24T14:08:19.795Z,67.50
2023-12-24T14:10:46.513Z,67.50
2023-12-24T14:13:13.297Z,67.50
2023-12-24T14:15:39.970Z,67.50
2023-12-24T14:18:08.338Z,67.60
2023-12-24T14:20:35.344Z,67.50
2023-12-24T14:23:02.200Z,67.50
2023-12-24T14:25:28.909Z,67.60
2023-12-24T14:27:55.633Z,67.60
2023-12-24T14:30:22.653Z,67.50
2023-12-24T14:32:49.752Z,67.50
2023-12-24T14:35:16.571Z,67.50
2023-12-24T14:37:43.354Z,67.50
2023-12-24T14:40:11.156Z,67.50
2023-12-24T14:42:37.885Z,67.60
2023-12-24T14:45:05.297Z,67.50
2023-12-24T14:47:32.243Z,67.50
2023-12-24T14:49:59.725Z,67.50
2023-12-24T14:52:29.369Z,67.50
2023-12-24T14:54:57.768Z,67.50
2023-12-24T14:57:26.722Z,67.60
2023-12-24T14:59:55.812Z,67.50
2023-12-24T15:02:26.888Z,67.50
2023-12-24T15:04:55.074Z,68.20
2023-12-24T15:07:22.377Z,67.50
2023-12-24T15:09:49.540Z,67.50
2023-12-24T15:12:16.883Z,67.60
2023-12-24T15:14:44.577Z,67.50
2023-12-24T15:17:15.250Z,67.50
2023-12-24T15:19:43.180Z,67.50
2023-12-24T15:22:10.046Z,67.50
2023-12-24T15:24:36.798Z,67.50
2023-12-24T15:27:03.887Z,67.50
2023-12-24T15:29:30.865Z,67.60
2023-12-24T15:31:57.735Z,67.60
2023-12-24T15:34:24.781Z,67.60
2023-12-24T15:36:51.597Z,67.60
2023-12-24T15:39:18.383Z,67.60
2023-12-24T15:41:45.152Z,67.60
2023-12-24T15:44:11.981Z,67.60
2023-12-24T15:46:38.761Z,67.60
2023-12-24T15:49:05.939Z,67.60
2023-12-24T15:51:36.039Z,67.60
2023-12-24T15:54:04.950Z,67.60
2023-12-24T15:56:31.887Z,67.50
2023-12-24T15:58:58.719Z,67.60
2023-12-24T16:01:27.945Z,67.50
2023-12-24T16:03:54.762Z,67.60
2023-12-24T16:06:21.918Z,67.60
2023-12-24T16:08:49.039Z,67.60
2023-12-24T16:11:16.031Z,67.60
2023-12-24T16:13:42.821Z,67.60
2023-12-24T16:16:09.555Z,67.60
2023-12-24T16:18:36.368Z,67.60
2023-12-24T16:21:03.361Z,67.60
2023-12-24T16:23:30.187Z,67.60
2023-12-24T16:25:56.904Z,67.60
2023-12-24T16:28:23.621Z,67.50
2023-12-24T16:30:50.383Z,67.60
2023-12-24T16:33:17.243Z,67.50
2023-12-24T16:35:44.051Z,67.60
2023-12-24T16:38:10.960Z,67.60
2023-12-24T16:40:37.749Z,67.60
2023-12-24T16:43:04.937Z,67.60
2023-12-24T16:45:34.404Z,67.60
2023-12-24T16:48:02.715Z,67.60
2023-12-24T16:50:32.961Z,67.60
2023-12-24T16:52:59.676Z,67.60
2023-12-24T16:55:26.418Z,67.50
2023-12-24T16:57:53.148Z,67.60
2023-12-24T17:00:20.456Z,67.60
2023-12-24T17:02:47.233Z,67.50
2023-12-24T17:05:14.124Z,67.60
2023-12-24T17:07:40.923Z,67.50
2023-12-24T17:10:08.423Z,67.60
2023-12-24T17:12:36.660Z,67.60
2023-12-24T17:15:03.632Z,67.60
2023-12-24T17:17:30.932Z,67.60
2023-12-24T17:19:57.972Z,67.60
2023-12-24T17:22:24.753Z,67.60
2023-12-24T17:24:51.801Z,67.60
2023-12-24T17:27:18.736Z,67.60
2023-12-24T17:29:45.909Z,67.60
2023-12-24T17:32:12.940Z,67.60
2023-12-24T17:34:40.817Z,67.60
2023-12-24T17:37:08.020Z,67.60
2023-12-24T17:39:35.216Z,67.60
2023-12-24T17:42:02.354Z,67.60
2023-12-24T17:44:29.473Z,67.60
2023-12-24T17:46:56.404Z,67.60
2023-12-24T17:49:23.367Z,67.60
2023-12-24T17:51:50.252Z,67.60
2023-12-24T17:54:17.021Z,67.60
2023-12-24T17:56:44.534Z,67.60
2023-12-24T17:59:11.932Z,67.70
2023-12-24T18:01:39.123Z,67.70
2023-12-24T18:04:08.999Z,67.60
2023-12-24T18:06:35.903Z,67.60
2023-12-24T18:09:04.273Z,67.60
2023-12-24T18:11:34.080Z,67.60
2023-12-24T18:14:01.152Z,67.60
2023-12-24T18:16:29.412Z,67.60
2023-12-24T18:18:56.219Z,67.60
2023-12-24T18:21:23.375Z,67.60
2023-12-24T18:23:50.209Z,67.60
2023-12-24T18:26:17.098Z,67.60
2023-12-24T18:28:43.881Z,67.70
2023-12-24T18:31:10.751Z,67.60
2023-12-24T18:33:38.810Z,67.60
2023-12-24T18:36:06.160Z,67.70
2023-12-24T18:38:33.206Z,67.60
2023-12-24T18:41:00.562Z,67.60
2023-12-24T18:43:27.567Z,67.60
2023-12-24T18:45:55.349Z,67.60
2023-12-24T18:48:23.271Z,67.60
2023-12-24T18:50:50.312Z,67.60
2023-12-24T18:53:17.190Z,67.60
2023-12-24T18:55:44.053Z,68.00
2023-12-24T18:58:10.806Z,67.60
2023-12-24T19:00:37.685Z,67.60
2023-12-24T19:03:04.865Z,67.60
2023-12-24T19:05:31.656Z,67.70
2023-12-24T19:07:58.536Z,67.70
2023-12-24T19:10:25.379Z,67.60
2023-12-24T19:12:52.566Z,67.70
2023-12-24T19:15:19.492Z,67.70
2023-12-24T19:17:46.389Z,67.70
2023-12-24T19:20:13.346Z,67.70
2023-12-24T19:22:40.993Z,67.60
2023-12-24T19:25:08.305Z,67.70
2023-12-24T19:27:35.033Z,67.60
2023-12-24T19:30:02.071Z,67.70
2023-12-24T19:32:29.019Z,67.70
2023-12-24T19:34:57.745Z,67.70
2023-12-24T19:37:25.376Z,67.70
2023-12-24T19:39:52.160Z,67.70
2023-12-24T19:42:19.053Z,67.70
2023-12-24T19:44:45.835Z,67.70
2023-12-24T19:47:12.667Z,67.70
2023-12-24T19:49:39.560Z,67.70
2023-12-24T19:52:06.488Z,67.70
2023-12-24T19:54:33.515Z,67.70
2023-12-24T19:57:00.376Z,67.70
2023-12-24T19:59:27.162Z,67.70
2023-12-24T20:01:53.977Z,67.70
2023-12-24T20:04:20.761Z,67.70
2023-12-24T20:06:47.577Z,67.70
2023-12-24T20:09:14.353Z,67.70
2023-12-24T20:11:41.425Z,67.70
2023-12-24T20:14:09.270Z,67.70
2023-12-24T20:16:36.220Z,67.70
2023-12-24T20:19:03.403Z,67.70
2023-12-24T20:21:30.228Z,67.70
2023-12-24T20:23:56.987Z,67.70
2023-12-24T20:26:23.825Z,67.70
2023-12-24T20:28:50.617Z,67.70
2023-12-24T20:31:17.384Z,67.70
2023-12-24T20:33:47.059Z,67.70
2023-12-24T20:36:16.278Z,67.70
2023-12-24T20:38:43.179Z,67.70
2023-12-24T20:41:09.960Z,67.70
2023-12-24T20:43:36.711Z,67.70
2023-12-24T20:46:04.712Z,67.70
2023-12-24T20:48:34.223Z,67.70
2023-12-24T20:51:03.584Z,67.70
2023-12-24T20:53:31.268Z,67.70
2023-12-24T20:55:58.154Z,67.80
2023-12-24T20:58:25.004Z,67.70
2023-12-24T21:00:52.648Z,67.70
2023-12-24T21:03:19.625Z,67.70
2023-12-24T21:05:48.435Z,67.70
2023-12-24T21:08:15.438Z,67.80
2023-12-24T21:10:42.238Z,67.70
2023-12-24T21:13:08.970Z,67.70
2023-12-24T21:15:35.757Z,67.70
2023-12-24T21:18:02.698Z,67.70
2023-12-24T21:20:29.554Z,67.70
2023-12-24T21:22:56.394Z,67.80
2023-12-24T21:25:23.248Z,67.80
2023-12-24T21:27:51.872Z,67.80
2023-12-24T21:30:18.829Z,67.80
2023-12-24T21:32:45.752Z,67.80
2023-12-24T21:35:12.778Z,67.80
2023-12-24T21:37:39.539Z,67.80
2023-12-24T21:40:08.739Z,67.70
2023-12-24T21:42:35.424Z,67.70
2023-12-24T21:45:02.140Z,67.70
2023-12-24T21:47:28.985Z,67.80
2023-12-24T21:49:55.807Z,67.80
2023-12-24T21:52:22.504Z,67.80
2023-12-24T21:54:49.229Z,67.70
2023-12-24T21:57:16.527Z,67.70
2023-12-24T21:59:43.339Z,67.80
2023-12-24T22:02:10.167Z,67.80
2023-12-24T22:04:37.281Z,67.80
2023-12-24T22:07:04.727Z,67.70
2023-12-24T22:09:31.442Z,67.70
2023-12-24T22:11:58.194Z,67.80
2023-12-24T22:14:25.005Z,67.70
2023-12-24T22:16:52.609Z,67.80
2023-12-24T22:19:19.619Z,67.70
2023-12-24T22:21:49.364Z,67.80
2023-12-24T22:24:21.053Z,67.80
2023-12-24T22:26:48.153Z,67.80
2023-12-24T22:29:15.699Z,67.80
2023-12-24T22:31:42.813Z,67.80
2023-12-24T22:34:09.651Z,67.80
2023-12-24T22:36:36.505Z,67.80
2023-12-24T22:39:04.369Z,67.80
2023-12-24T22:41:31.381Z,67.80
2023-12-24T22:43:58.146Z,67.80
2023-12-24T22:46:25.044Z,67.80
2023-12-24T22:48:51.993Z,67.80
2023-12-24T22:51:18.791Z,67.80
2023-12-24T22:53:45.559Z,67.80
2023-12-24T22:56:12.904Z,67.70
2023-12-24T22:58:39.693Z,67.70
2023-12-24T23:01:09.614Z,67.70
2023-12-24T23:03:40.321Z,67.80
2023-12-24T23:06:08.713Z,67.80
2023-12-24T23:08:36.615Z,67.80
2023-12-24T23:11:03.712Z,67.80
2023-12-24T23:13:30.535Z,67.80
2023-12-24T23:15:57.626Z,67.80
2023-12-24T23:18:24.937Z,67.80
2023-12-24T23:20:51.787Z,67.80
2023-12-24T23:23:18.611Z,67.80
2023-12-24T23:25:45.388Z,67.80
2023-12-24T23:28:12.314Z,67.90
2023-12-24T23:30:39.544Z,67.80
2023-12-24T23:33:06.464Z,67.80
2023-12-24T23:35:33.303Z,67.80
2023-12-24T23:38:00.715Z,67.80
2023-12-24T23:40:27.553Z,67.70
2023-12-24T23:42:54.429Z,67.70
2023-12-24T23:45:21.181Z,67.80
2023-12-24T23:47:48.566Z,67.80
2023-12-24T23:50:15.750Z,68.40
2023-12-24T23:52:42.811Z,67.90
2023-12-24T23:55:09.709Z,67.80
2023-12-24T23:57:36.486Z,67.80
